Time;durP1;ratioP1;P1;durP2;ratioP2;P2;SDS_P1;SDS_P2;PMS_P1;PMS_P2;Temp;Humidity;BMP_temperature;BMP_pressure;BME280_temperature;BME280_humidity;BME280_pressure;Samples;Min_cycle;Max_cycle;Signal;HPM_P1;HPM_P2
2023/05/23 00:01:36;;;;;;;36.40;16.90;;;13.70;99.90;;;;;;5079824;28;20063;-70
2023/05/23 00:04:05;;;;;;;36.85;17.63;;;13.70;99.90;;;;;;5100374;28;20052;-68
2023/05/23 00:06:33;;;;;;;33.08;16.75;;;13.70;99.90;;;;;;5101364;28;20052;-70
2023/05/23 00:08:58;;;;;;;31.98;16.13;;;13.60;99.90;;;;;;5100503;28;20046;-71
2023/05/23 00:11:26;;;;;;;27.02;15.63;;;13.60;99.90;;;;;;5098206;28;20111;-69
2023/05/23 00:13:56;;;;;;;31.02;14.50;;;13.60;99.90;;;;;;5097978;28;20039;-69
2023/05/23 00:16:22;;;;;;;31.25;14.65;;;13.60;99.90;;;;;;5071596;28;20048;-69
2023/05/23 00:18:49;;;;;;;29.83;14.93;;;13.60;99.90;;;;;;5096172;28;20152;-69
2023/05/23 00:21:15;;;;;;;27.38;14.57;;;13.60;99.90;;;;;;5099647;28;20058;-69
2023/05/23 00:23:41;;;;;;;28.65;15.07;;;13.60;99.90;;;;;;5094389;28;20035;-69
2023/05/23 00:26:10;;;;;;;28.30;14.32;;;13.60;99.90;;;;;;5101408;28;20048;-68
2023/05/23 00:28:38;;;;;;;30.77;14.73;;;13.60;99.90;;;;;;5073129;28;20040;-69
2023/05/23 00:31:04;;;;;;;25.17;13.30;;;13.60;99.90;;;;;;5079806;28;20502;-71
2023/05/23 00:33:32;;;;;;;24.60;12.27;;;13.50;99.90;;;;;;5097373;28;20087;-69
2023/05/23 00:35:58;;;;;;;18.88;11.82;;;13.60;99.90;;;;;;5089642;28;20394;-68
2023/05/23 00:38:24;;;;;;;21.92;12.57;;;13.60;99.90;;;;;;5098705;28;20131;-69
2023/05/23 00:40:49;;;;;;;27.60;12.52;;;13.60;99.90;;;;;;5101541;28;20118;-70
2023/05/23 00:43:15;;;;;;;20.02;11.35;;;13.60;99.90;;;;;;5097923;28;20083;-72
2023/05/23 00:45:40;;;;;;;21.33;12.38;;;13.60;99.90;;;;;;5084544;28;20533;-68
2023/05/23 00:48:07;;;;;;;25.90;12.75;;;13.50;99.90;;;;;;5100996;28;20110;-68
2023/05/23 00:50:35;;;;;;;21.60;12.80;;;13.50;99.90;;;;;;5100585;28;20062;-70
2023/05/23 00:53:01;;;;;;;16.48;10.38;;;13.50;99.90;;;;;;5099959;28;20040;-69
2023/05/23 00:55:28;;;;;;;18.98;11.10;;;13.50;99.90;;;;;;5093106;28;20475;-69
2023/05/23 00:57:56;;;;;;;15.60;9.23;;;13.50;99.90;;;;;;5103968;28;20048;-71
2023/05/23 01:00:23;;;;;;;21.60;9.82;;;13.50;99.90;;;;;;5105164;28;20390;-70
2023/05/23 01:02:50;;;;;;;18.25;9.10;;;13.50;99.90;;;;;;5104227;28;20115;-68
2023/05/23 01:05:17;;;;;;;21.73;8.57;;;13.40;99.90;;;;;;5097303;28;20403;-69
2023/05/23 01:07:49;;;;;;;21.17;8.80;;;13.50;99.90;;;;;;5101702;28;20051;-69
2023/05/23 01:10:18;;;;;;;21.48;9.25;;;13.50;99.90;;;;;;5066173;28;20056;-69
2023/05/23 01:12:57;;;;;;;21.42;8.80;;;13.40;99.90;;;;;;5101555;28;20454;-69
2023/05/23 01:15:54;;;;;;;21.52;8.90;;;13.40;99.90;;;;;;5084852;28;20032;-69
2023/05/23 01:18:40;;;;;;;27.23;8.80;;;13.30;99.90;;;;;;5101747;28;20097;-69
2023/05/23 01:21:17;;;;;;;26.58;9.30;;;13.30;99.90;;;;;;5102445;28;20055;-69
2023/05/23 01:24:01;;;;;;;27.88;9.55;;;13.20;99.90;;;;;;5104542;28;20043;-68
2023/05/23 01:26:51;;;;;;;27.63;9.05;;;13.10;99.90;;;;;;5096999;28;20398;-67
2023/05/23 01:29:32;;;;;;;28.02;10.30;;;13.10;99.90;;;;;;5102168;28;20470;-68
2023/05/23 01:31:59;;;;;;;28.65;10.20;;;13.00;99.90;;;;;;5104413;28;20070;-69
2023/05/23 01:34:25;;;;;;;32.10;10.27;;;13.00;99.90;;;;;;5102694;28;20130;-69
2023/05/23 01:36:54;;;;;;;33.15;11.38;;;12.90;99.90;;;;;;5092627;28;20048;-68
2023/05/23 01:39:20;;;;;;;25.05;8.93;;;12.90;99.90;;;;;;5100676;28;20103;-70
2023/05/23 01:41:47;;;;;;;26.27;10.35;;;12.90;99.90;;;;;;5101085;28;20032;-72
2023/05/23 01:44:13;;;;;;;24.10;11.32;;;12.80;99.90;;;;;;5107987;28;20040;-67
2023/05/23 01:46:39;;;;;;;27.25;9.90;;;12.70;99.90;;;;;;5102097;28;20092;-66
2023/05/23 01:49:08;;;;;;;31.92;11.40;;;12.70;99.90;;;;;;5097582;28;20405;-69
2023/05/23 01:51:35;;;;;;;35.78;10.60;;;12.70;99.90;;;;;;5104283;28;20069;-69
2023/05/23 01:54:01;;;;;;;23.13;11.18;;;12.60;99.90;;;;;;5101212;28;20044;-70
2023/05/23 01:56:27;;;;;;;25.27;10.98;;;12.70;99.90;;;;;;5100658;28;20392;-68
2023/05/23 01:58:53;;;;;;;37.78;11.48;;;12.60;99.90;;;;;;5100428;28;20517;-69
2023/05/23 02:01:19;;;;;;;29.05;11.20;;;12.60;99.90;;;;;;5094518;28;20040;-70
2023/05/23 02:03:45;;;;;;;28.40;10.48;;;12.70;99.90;;;;;;5094943;28;20050;-70
2023/05/23 02:06:11;;;;;;;26.85;10.20;;;12.80;99.90;;;;;;5103755;28;20051;-71
2023/05/23 02:08:37;;;;;;;23.08;9.43;;;12.50;99.90;;;;;;5078648;28;20055;-72
2023/05/23 02:11:03;;;;;;;28.33;9.60;;;12.50;99.90;;;;;;5094946;28;20052;-69
2023/05/23 02:13:29;;;;;;;27.63;9.40;;;12.50;99.90;;;;;;5090783;28;20032;-68
2023/05/23 02:15:54;;;;;;;27.40;8.93;;;12.50;99.90;;;;;;5091670;28;20098;-69
2023/05/23 02:18:20;;;;;;;27.95;9.57;;;12.50;99.90;;;;;;5073513;28;20045;-69
2023/05/23 02:20:46;;;;;;;23.20;8.65;;;12.50;99.90;;;;;;5100086;28;20706;-69
2023/05/23 02:23:11;;;;;;;24.83;9.40;;;12.50;99.90;;;;;;5099672;28;20496;-71
2023/05/23 02:25:37;;;;;;;30.02;8.85;;;12.60;99.90;;;;;;5096134;28;20043;-70
2023/05/23 02:28:03;;;;;;;24.95;8.18;;;12.50;99.90;;;;;;5100555;28;20538;-70
2023/05/23 02:30:28;;;;;;;26.83;8.80;;;12.50;99.90;;;;;;5103157;28;20127;-69
2023/05/23 02:32:54;;;;;;;24.52;8.07;;;12.50;99.90;;;;;;5097042;28;20105;-71
2023/05/23 02:35:21;;;;;;;25.80;8.15;;;12.50;99.90;;;;;;5101067;28;20110;-69
2023/05/23 02:37:46;;;;;;;27.02;7.60;;;12.50;99.90;;;;;;5080785;28;20098;-69
2023/05/23 02:40:12;;;;;;;21.80;7.53;;;12.40;99.90;;;;;;5099013;28;20474;-70
2023/05/23 02:42:37;;;;;;;23.40;7.70;;;12.40;99.90;;;;;;5100333;28;20050;-68
2023/05/23 02:45:03;;;;;;;23.58;6.80;;;12.40;99.90;;;;;;5097194;28;20082;-72
2023/05/23 02:47:29;;;;;;;28.00;6.47;;;12.40;99.90;;;;;;5102689;28;20056;-69
2023/05/23 02:49:55;;;;;;;22.27;7.45;;;12.50;99.90;;;;;;5100305;28;20111;-68
2023/05/23 02:52:21;;;;;;;22.33;6.80;;;12.40;99.90;;;;;;5081375;28;20040;-68
2023/05/23 02:54:46;;;;;;;29.02;7.65;;;12.40;99.90;;;;;;5093830;28;20048;-68
2023/05/23 02:57:12;;;;;;;25.30;7.85;;;12.40;99.90;;;;;;5102712;28;20047;-71
2023/05/23 02:59:37;;;;;;;21.00;7.50;;;12.40;99.90;;;;;;5102819;28;20046;-68
2023/05/23 03:02:03;;;;;;;27.38;8.07;;;12.50;99.90;;;;;;5090522;28;20437;-68
2023/05/23 03:04:29;;;;;;;20.58;7.65;;;12.40;99.90;;;;;;5097792;28;20043;-69
2023/05/23 03:06:54;;;;;;;30.63;8.38;;;12.30;99.90;;;;;;5096403;28;20147;-69
2023/05/23 03:09:20;;;;;;;17.60;7.07;;;12.40;99.90;;;;;;5099563;28;20044;-70
2023/05/23 03:11:46;;;;;;;22.42;8.20;;;12.30;99.90;;;;;;5099425;28;20051;-68
2023/05/23 03:14:11;;;;;;;22.58;8.00;;;12.30;99.90;;;;;;5099088;28;21370;-70
2023/05/23 03:16:37;;;;;;;20.80;7.03;;;12.30;99.90;;;;;;5095951;28;20543;-71
2023/05/23 03:19:03;;;;;;;28.05;7.35;;;12.30;99.90;;;;;;5101684;28;20051;-71
2023/05/23 03:21:30;;;;;;;24.35;7.35;;;12.30;99.90;;;;;;5099149;28;20462;-69
2023/05/23 03:23:56;;;;;;;24.95;6.88;;;12.30;99.90;;;;;;5099443;28;20049;-68
2023/05/23 03:26:22;;;;;;;22.08;7.07;;;12.30;99.90;;;;;;5097920;28;20475;-68
2023/05/23 03:28:49;;;;;;;16.65;6.35;;;12.40;99.90;;;;;;5098912;28;20036;-69
2023/05/23 03:31:15;;;;;;;23.35;6.70;;;12.30;99.90;;;;;;5081196;28;20056;-68
2023/05/23 03:33:41;;;;;;;14.63;6.13;;;12.40;99.90;;;;;;5102214;28;20047;-67
2023/05/23 03:36:07;;;;;;;23.08;6.50;;;12.30;99.90;;;;;;5096850;28;20491;-68
2023/05/23 03:38:33;;;;;;;23.05;6.18;;;12.30;99.90;;;;;;5098436;28;20048;-71
2023/05/23 03:40:58;;;;;;;17.55;6.32;;;12.30;99.90;;;;;;5099114;28;20036;-69
2023/05/23 03:43:24;;;;;;;21.65;6.50;;;12.40;99.90;;;;;;5094981;28;20173;-69
2023/05/23 03:45:50;;;;;;;24.08;5.78;;;12.30;99.90;;;;;;5101975;28;20032;-70
2023/05/23 03:48:15;;;;;;;19.33;6.10;;;12.20;99.90;;;;;;5090465;28;20048;-70
2023/05/23 03:50:41;;;;;;;20.27;5.60;;;12.20;99.90;;;;;;5100173;28;20173;-70
2023/05/23 03:53:07;;;;;;;24.25;5.38;;;12.20;99.90;;;;;;5101472;28;20048;-68
2023/05/23 03:55:33;;;;;;;17.77;4.90;;;12.20;99.90;;;;;;5101751;28;20031;-69
2023/05/23 03:57:59;;;;;;;21.48;4.97;;;12.20;99.90;;;;;;5089262;28;20039;-69
2023/05/23 04:00:25;;;;;;;21.42;4.95;;;12.10;99.90;;;;;;5091908;28;20039;-69
2023/05/23 04:02:51;;;;;;;20.77;4.57;;;12.10;99.90;;;;;;5094660;28;20043;-69
2023/05/23 04:05:16;;;;;;;25.38;4.85;;;12.10;99.90;;;;;;5098518;28;20043;-68
2023/05/23 04:07:42;;;;;;;24.77;5.30;;;12.10;99.90;;;;;;5098303;28;20089;-68
2023/05/23 04:10:08;;;;;;;16.60;5.10;;;12.10;99.90;;;;;;5093074;28;20452;-70
2023/05/23 04:12:35;;;;;;;18.73;5.53;;;12.00;99.90;;;;;;5101779;28;20118;-71
2023/05/23 04:15:01;;;;;;;16.80;4.97;;;12.00;99.90;;;;;;5100062;28;20077;-70
2023/05/23 04:17:28;;;;;;;21.95;5.85;;;12.00;99.90;;;;;;5093664;28;20047;-67
2023/05/23 04:19:54;;;;;;;22.50;6.03;;;12.00;99.90;;;;;;5098209;28;20043;-69
2023/05/23 04:22:19;;;;;;;20.40;4.85;;;12.00;99.90;;;;;;5098585;28;20384;-68
2023/05/23 04:24:45;;;;;;;19.42;4.70;;;12.00;99.90;;;;;;5096703;28;20123;-69
2023/05/23 04:27:12;;;;;;;15.18;4.82;;;12.00;99.90;;;;;;5080493;28;20052;-69
2023/05/23 04:29:40;;;;;;;17.00;4.25;;;12.00;99.90;;;;;;5098336;28;20044;-68
2023/05/23 04:32:07;;;;;;;16.25;4.20;;;12.00;99.90;;;;;;5097525;28;20101;-69
2023/05/23 04:34:32;;;;;;;13.77;4.20;;;12.00;99.90;;;;;;5105999;28;20749;-68
2023/05/23 04:37:01;;;;;;;15.90;4.18;;;11.90;99.90;;;;;;5105689;28;20048;-70
2023/05/23 04:39:30;;;;;;;18.38;4.63;;;12.00;99.90;;;;;;5096733;28;20441;-68
2023/05/23 04:41:56;;;;;;;21.90;4.60;;;11.90;99.90;;;;;;5105865;28;20038;-70
2023/05/23 04:44:29;;;;;;;17.65;5.25;;;11.90;99.90;;;;;;5083999;28;20052;-69
2023/05/23 04:46:55;;;;;;;20.67;5.55;;;11.80;99.90;;;;;;5104857;28;20112;-70
2023/05/23 04:49:22;;;;;;;22.75;6.25;;;11.90;99.90;;;;;;5097078;28;20078;-71
2023/05/23 04:51:47;;;;;;;20.25;5.72;;;11.90;99.90;;;;;;5083000;28;20141;-69
2023/05/23 04:54:13;;;;;;;19.00;5.97;;;11.90;99.90;;;;;;5101766;28;20056;-69
2023/05/23 04:56:39;;;;;;;22.85;6.57;;;11.80;99.90;;;;;;5084169;28;20062;-69
2023/05/23 04:59:07;;;;;;;31.60;7.28;;;12.00;99.90;;;;;;5103367;28;20044;-70
2023/05/23 05:01:33;;;;;;;19.13;6.80;;;11.60;99.90;;;;;;5088845;28;20475;-71
2023/05/23 05:03:59;;;;;;;24.15;7.07;;;11.70;99.90;;;;;;5097548;28;20109;-70
2023/05/23 05:06:26;;;;;;;19.33;7.20;;;11.60;99.90;;;;;;5101180;28;20079;-68
2023/05/23 05:08:51;;;;;;;25.30;7.45;;;11.70;99.90;;;;;;5104006;28;20046;-70
2023/05/23 05:11:17;;;;;;;27.92;6.65;;;11.50;99.90;;;;;;5092667;28;20044;-69
2023/05/23 05:13:43;;;;;;;17.67;6.32;;;11.60;99.90;;;;;;5101682;28;20050;-70
2023/05/23 05:16:08;;;;;;;21.00;6.88;;;11.50;99.90;;;;;;5095311;28;20146;-68
2023/05/23 05:18:35;;;;;;;22.83;5.70;;;11.50;99.90;;;;;;5082888;28;20414;-70
2023/05/23 05:21:01;;;;;;;17.98;6.15;;;11.50;99.90;;;;;;5093810;28;20380;-70
2023/05/23 05:23:29;;;;;;;18.75;5.25;;;11.40;99.90;;;;;;5101565;28;20122;-68
2023/05/23 05:25:56;;;;;;;17.25;6.60;;;11.40;99.90;;;;;;5101706;28;20047;-70
2023/05/23 05:28:22;;;;;;;19.67;5.78;;;11.70;99.90;;;;;;5103945;28;20080;-69
2023/05/23 05:30:52;;;;;;;18.67;5.35;;;11.40;99.90;;;;;;5103427;28;20069;-68
2023/05/23 05:33:19;;;;;;;25.15;5.75;;;11.40;99.90;;;;;;5099280;28;20051;-69
2023/05/23 05:35:45;;;;;;;18.60;5.53;;;11.30;99.90;;;;;;5101505;28;20384;-70
2023/05/23 05:38:11;;;;;;;21.95;5.13;;;11.30;99.90;;;;;;5100988;28;20089;-69
2023/05/23 05:40:36;;;;;;;19.95;5.70;;;11.30;99.90;;;;;;5074731;28;20414;-69
2023/05/23 05:43:02;;;;;;;17.40;5.18;;;11.30;99.90;;;;;;5092452;28;20376;-70
2023/05/23 05:45:28;;;;;;;18.20;6.68;;;11.30;99.90;;;;;;5083812;28;20087;-69
2023/05/23 05:47:53;;;;;;;22.30;4.90;;;11.20;99.90;;;;;;5099711;28;20040;-68
2023/05/23 05:50:19;;;;;;;15.75;5.22;;;11.30;99.90;;;;;;5101085;28;20054;-68
2023/05/23 05:52:45;;;;;;;15.00;4.70;;;11.20;99.90;;;;;;5100464;28;20032;-69
2023/05/23 05:55:11;;;;;;;20.83;5.25;;;11.20;99.90;;;;;;5095698;28;20511;-68
2023/05/23 05:57:40;;;;;;;15.45;5.18;;;11.30;99.90;;;;;;5082821;28;20149;-69
2023/05/23 06:00:12;;;;;;;18.58;5.93;;;11.40;99.90;;;;;;5104086;28;20401;-69
2023/05/23 06:02:38;;;;;;;19.30;4.43;;;11.30;99.90;;;;;;5101836;28;20047;-68
2023/05/23 06:05:06;;;;;;;15.90;4.43;;;11.40;99.90;;;;;;5082322;28;20052;-68
2023/05/23 06:07:33;;;;;;;11.00;4.28;;;11.30;99.90;;;;;;5098819;28;20052;-68
2023/05/23 06:09:58;;;;;;;14.00;4.03;;;11.30;99.90;;;;;;5101937;28;20394;-68
2023/05/23 06:12:24;;;;;;;14.00;4.72;;;11.30;99.90;;;;;;5099714;28;20039;-69
2023/05/23 06:14:50;;;;;;;18.20;4.15;;;11.40;99.90;;;;;;5093252;28;20043;-68
2023/05/23 06:17:15;;;;;;;14.50;4.50;;;11.30;99.90;;;;;;5100500;28;20032;-68
2023/05/23 06:19:41;;;;;;;14.88;4.47;;;11.30;99.90;;;;;;5100214;28;20143;-70
2023/05/23 06:22:06;;;;;;;22.70;4.47;;;11.30;99.90;;;;;;5102211;28;20051;-67
2023/05/23 06:24:32;;;;;;;17.42;4.50;;;11.30;99.90;;;;;;5095595;28;20395;-70
2023/05/23 06:26:58;;;;;;;22.63;4.80;;;11.50;99.90;;;;;;5100515;28;20047;-69
2023/05/23 06:29:23;;;;;;;19.33;4.40;;;11.20;99.90;;;;;;5103411;28;20119;-68
2023/05/23 06:31:50;;;;;;;19.65;4.10;;;11.30;99.90;;;;;;5097374;28;20487;-68
2023/05/23 06:34:16;;;;;;;22.20;4.53;;;11.40;99.90;;;;;;5081212;28;20515;-71
2023/05/23 06:36:42;;;;;;;19.98;3.92;;;11.40;99.90;;;;;;5091404;28;20040;-66
2023/05/23 06:39:10;;;;;;;20.67;4.45;;;11.50;99.90;;;;;;5094270;28;20397;-71
2023/05/23 06:41:36;;;;;;;18.92;4.45;;;11.80;99.90;;;;;;5099217;28;20040;-68
2023/05/23 06:44:01;;;;;;;21.15;4.05;;;11.50;99.90;;;;;;5100317;28;20073;-69
2023/05/23 06:46:27;;;;;;;26.20;4.85;;;11.50;99.90;;;;;;5097904;28;20083;-68
2023/05/23 06:48:53;;;;;;;18.15;3.80;;;11.60;99.90;;;;;;5102667;28;20043;-69
2023/05/23 06:51:18;;;;;;;19.20;3.70;;;11.70;99.90;;;;;;5095558;28;20444;-69
2023/05/23 06:53:44;;;;;;;18.35;3.97;;;11.70;99.90;;;;;;5096163;28;20118;-69
2023/05/23 06:56:10;;;;;;;21.52;4.25;;;11.80;99.90;;;;;;5099776;28;20048;-69
2023/05/23 06:58:35;;;;;;;25.00;4.80;;;11.70;99.90;;;;;;5081391;28;20072;-69
2023/05/23 07:01:01;;;;;;;19.33;4.40;;;11.80;99.90;;;;;;5102996;28;20047;-69
2023/05/23 07:03:26;;;;;;;26.13;4.38;;;12.00;99.90;;;;;;5102900;28;20039;-67
2023/05/23 07:05:52;;;;;;;19.55;4.38;;;11.90;99.90;;;;;;5093280;28;20079;-70
2023/05/23 07:08:18;;;;;;;19.88;4.30;;;11.90;99.90;;;;;;5080897;28;20506;-69
2023/05/23 07:10:43;;;;;;;19.33;4.07;;;12.20;99.90;;;;;;5081242;28;20044;-68
2023/05/23 07:13:09;;;;;;;21.38;3.90;;;12.00;99.90;;;;;;5075483;28;20036;-68
2023/05/23 07:15:34;;;;;;;22.70;5.13;;;12.00;99.90;;;;;;5097716;28;20114;-69
2023/05/23 07:18:00;;;;;;;22.98;4.18;;;11.90;99.90;;;;;;5092473;28;20039;-70
2023/05/23 07:20:26;;;;;;;24.40;4.47;;;11.90;99.90;;;;;;5098917;28;20089;-68
2023/05/23 07:22:51;;;;;;;21.23;3.75;;;11.90;99.90;;;;;;5099274;28;20541;-70
2023/05/23 07:25:17;;;;;;;25.13;4.70;;;11.90;99.90;;;;;;5101630;28;20051;-70
2023/05/23 07:27:43;;;;;;;21.70;3.80;;;12.00;99.90;;;;;;5082390;28;20762;-71
2023/05/23 07:30:09;;;;;;;26.80;3.95;;;12.00;99.90;;;;;;5090015;28;20075;-70
2023/05/23 07:32:35;;;;;;;23.65;4.10;;;12.00;99.90;;;;;;5099000;28;20095;-71
2023/05/23 07:35:01;;;;;;;25.08;4.38;;;12.00;99.90;;;;;;5098475;28;20089;-70
2023/05/23 07:37:26;;;;;;;27.13;4.32;;;12.10;99.90;;;;;;5101138;28;20047;-69
2023/05/23 07:39:53;;;;;;;15.75;3.65;;;12.00;99.90;;;;;;5093708;28;20123;-70
2023/05/23 07:42:18;;;;;;;27.33;4.15;;;12.00;99.90;;;;;;5088738;28;20630;-70
2023/05/23 07:44:44;;;;;;;19.80;3.13;;;12.20;99.90;;;;;;5086209;28;20047;-68
2023/05/23 07:47:09;;;;;;;19.65;3.25;;;12.40;99.90;;;;;;5097622;28;20046;-68
2023/05/23 07:49:35;;;;;;;10.63;2.80;;;12.40;99.90;;;;;;5099132;28;20047;-66
2023/05/23 07:52:01;;;;;;;21.95;3.90;;;12.50;99.90;;;;;;5080126;28;20036;-69
2023/05/23 07:54:27;;;;;;;17.77;3.40;;;12.60;99.90;;;;;;5098453;28;20051;-66
2023/05/23 07:56:53;;;;;;;17.50;3.13;;;12.60;99.90;;;;;;5081144;28;20055;-65
2023/05/23 07:59:19;;;;;;;22.17;3.78;;;12.60;99.90;;;;;;5099131;28;20047;-73
2023/05/23 08:01:45;;;;;;;20.23;3.80;;;12.60;99.90;;;;;;5100565;28;20050;-68
2023/05/23 08:04:10;;;;;;;19.05;4.40;;;12.60;99.90;;;;;;5097212;28;20048;-67
2023/05/23 08:06:36;;;;;;;16.63;3.42;;;12.70;99.90;;;;;;5090218;28;20086;-72
2023/05/23 08:09:05;;;;;;;20.63;3.63;;;12.60;99.90;;;;;;5098333;28;20086;-69
2023/05/23 08:11:30;;;;;;;24.38;4.32;;;12.70;99.90;;;;;;5089369;28;20460;-70
2023/05/23 08:13:58;;;;;;;18.65;3.80;;;12.80;99.90;;;;;;5099135;28;20040;-69
2023/05/23 08:16:25;;;;;;;28.02;4.28;;;12.80;99.90;;;;;;5080196;28;20061;-67
2023/05/23 08:18:52;;;;;;;18.10;3.55;;;12.90;99.90;;;;;;5099229;28;20044;-67
2023/05/23 08:21:19;;;;;;;18.77;3.65;;;13.00;99.90;;;;;;5089918;28;20044;-69
2023/05/23 08:23:45;;;;;;;17.27;3.75;;;13.10;99.90;;;;;;5099087;28;20055;-69
2023/05/23 08:26:10;;;;;;;15.43;4.32;;;13.20;99.90;;;;;;5089626;28;20051;-68
2023/05/23 08:28:36;;;;;;;20.50;4.43;;;13.40;99.90;;;;;;5098858;28;20063;-67
2023/05/23 08:31:02;;;;;;;21.23;4.05;;;13.50;99.90;;;;;;5098729;28;20066;-69
2023/05/23 08:33:27;;;;;;;22.50;3.85;;;13.60;99.90;;;;;;5101743;28;20040;-70
2023/05/23 08:35:53;;;;;;;18.98;3.65;;;13.80;99.90;;;;;;5092231;28;20044;-69
2023/05/23 08:38:20;;;;;;;20.58;3.70;;;13.90;99.90;;;;;;5098494;28;20051;-68
2023/05/23 08:40:50;;;;;;;18.58;3.83;;;14.10;99.90;;;;;;5098723;28;20048;-68
2023/05/23 08:43:16;;;;;;;13.57;3.40;;;14.30;99.90;;;;;;5098619;28;20963;-68
2023/05/23 08:45:42;;;;;;;19.63;3.42;;;14.60;99.90;;;;;;5098076;28;20044;-69
2023/05/23 08:48:12;;;;;;;23.80;3.53;;;14.70;99.90;;;;;;5096451;28;20047;-68
2023/05/23 08:50:39;;;;;;;23.52;4.38;;;14.90;99.90;;;;;;5081945;28;20173;-70
2023/05/23 08:53:07;;;;;;;18.88;3.55;;;15.30;99.90;;;;;;5098208;28;20077;-68
2023/05/23 08:55:33;;;;;;;23.52;4.07;;;15.40;99.90;;;;;;5095638;28;20055;-68
2023/05/23 08:57:59;;;;;;;17.33;3.60;;;15.30;99.90;;;;;;5098477;28;20100;-67
2023/05/23 09:00:26;;;;;;;19.45;4.07;;;15.10;99.90;;;;;;5096363;28;20031;-69
2023/05/23 09:02:53;;;;;;;24.85;3.88;;;15.00;99.90;;;;;;5090383;28;20050;-69
2023/05/23 09:05:19;;;;;;;23.65;4.55;;;15.00;99.90;;;;;;5089864;28;20079;-69
2023/05/23 09:07:49;;;;;;;20.05;4.30;;;15.00;99.90;;;;;;5098629;28;20051;-71
2023/05/23 09:10:16;;;;;;;16.65;3.72;;;15.20;99.90;;;;;;5096544;28;20497;-71
2023/05/23 09:12:42;;;;;;;18.45;3.78;;;15.20;99.90;;;;;;5101862;28;20043;-70
2023/05/23 09:15:09;;;;;;;16.60;3.00;;;15.30;99.90;;;;;;5086483;28;20051;-72
2023/05/23 09:17:36;;;;;;;18.85;3.65;;;15.30;99.90;;;;;;5105541;28;20114;-69
2023/05/23 09:20:06;;;;;;;14.88;3.22;;;15.20;99.90;;;;;;5094903;28;20063;-69
2023/05/23 09:22:31;;;;;;;17.95;3.08;;;15.40;99.90;;;;;;5102031;28;20121;-70
2023/05/23 09:24:57;;;;;;;19.58;3.42;;;15.40;99.90;;;;;;5101441;28;20372;-69
2023/05/23 09:27:23;;;;;;;15.45;3.35;;;15.70;99.90;;;;;;5105070;28;20762;-68
2023/05/23 09:29:49;;;;;;;19.02;3.45;;;15.60;99.90;;;;;;5102722;28;20514;-69
2023/05/23 09:32:16;;;;;;;15.60;2.95;;;15.60;99.90;;;;;;5101893;28;20403;-70
2023/05/23 09:35:12;;;;;;;18.48;3.20;;;15.60;99.90;;;;;;5097406;28;20706;-74
2023/05/23 09:37:42;;;;;;;14.70;3.10;;;15.40;99.90;;;;;;5088017;28;20130;-69
2023/05/23 09:40:09;;;;;;;20.38;3.85;;;15.40;99.90;;;;;;5083194;28;20056;-68
2023/05/23 09:42:40;;;;;;;22.92;3.70;;;15.50;99.90;;;;;;5092941;28;20044;-68
2023/05/23 09:45:06;;;;;;;16.50;3.20;;;15.50;99.90;;;;;;5083571;28;20127;-68
2023/05/23 09:47:32;;;;;;;22.08;3.20;;;15.60;99.90;;;;;;5084364;28;20487;-70
2023/05/23 09:49:58;;;;;;;16.60;3.58;;;15.70;99.90;;;;;;5093321;28;20047;-72
2023/05/23 09:52:23;;;;;;;19.17;3.15;;;15.60;99.90;;;;;;5101678;28;20048;-72
2023/05/23 09:54:49;;;;;;;15.95;3.20;;;15.80;99.90;;;;;;5078976;28;20059;-72
2023/05/23 09:57:16;;;;;;;15.30;3.55;;;15.90;99.90;;;;;;5104797;28;20052;-75
2023/05/23 09:59:49;;;;;;;14.73;3.47;;;15.70;99.90;;;;;;5094072;28;20032;-72
2023/05/23 10:02:19;;;;;;;18.65;3.05;;;15.70;99.90;;;;;;5088677;28;20491;-75
2023/05/23 10:04:45;;;;;;;18.00;4.10;;;15.60;99.90;;;;;;5101330;28;20557;-78
2023/05/23 10:07:21;;;;;;;16.15;3.92;;;15.50;99.90;;;;;;5092130;28;20070;-77
2023/05/23 10:09:55;;;;;;;18.77;3.92;;;15.60;99.90;;;;;;5101545;28;20372;-74
2023/05/23 10:12:44;;;;;;;21.05;3.63;;;15.70;99.90;;;;;;5104331;28;20051;-79
2023/05/23 10:15:15;;;;;;;22.38;3.85;;;15.50;99.90;;;;;;5072434;28;20044;-73
2023/05/23 10:18:25;;;;;;;16.98;3.20;;;15.50;99.90;;;;;;5099964;28;20039;-71
2023/05/23 10:20:52;;;;;;;15.32;3.70;;;15.70;99.90;;;;;;5097373;28;20036;-71
2023/05/23 10:23:19;;;;;;;23.05;3.53;;;15.70;99.90;;;;;;5083891;28;20089;-71
2023/05/23 10:25:45;;;;;;;17.88;2.72;;;15.70;99.90;;;;;;5099117;28;20040;-78
2023/05/23 10:28:12;;;;;;;16.42;3.05;;;15.50;99.90;;;;;;5082609;28;20134;-78
2023/05/23 10:30:39;;;;;;;14.75;2.80;;;15.40;99.90;;;;;;5100901;28;20039;-71
2023/05/23 10:33:07;;;;;;;17.95;3.42;;;15.30;99.90;;;;;;5082127;28;20123;-73
2023/05/23 10:35:40;;;;;;;12.88;2.72;;;15.40;99.90;;;;;;5095611;28;20451;-72
2023/05/23 10:38:05;;;;;;;15.07;3.03;;;15.60;99.90;;;;;;5096633;28;20048;-73
2023/05/23 10:40:50;;;;;;;13.65;3.00;;;15.70;99.90;;;;;;5095505;28;20051;-75
2023/05/23 10:43:28;;;;;;;20.17;3.53;;;15.70;99.90;;;;;;5100739;28;20050;-71
2023/05/23 10:45:54;;;;;;;19.90;3.45;;;15.90;99.90;;;;;;5100661;28;20081;-71
2023/05/23 10:48:39;;;;;;;15.88;3.38;;;15.70;99.90;;;;;;5093141;28;20149;-70
2023/05/23 10:51:08;;;;;;;13.13;3.13;;;15.50;99.90;;;;;;5097991;28;20068;-69
2023/05/23 10:53:42;;;;;;;12.23;3.28;;;15.40;99.90;;;;;;5098680;28;20052;-70
2023/05/23 10:56:10;;;;;;;15.48;3.35;;;15.40;99.90;;;;;;5099240;28;20052;-70
2023/05/23 10:58:39;;;;;;;18.85;3.08;;;15.40;99.90;;;;;;5100041;28;20118;-68
2023/05/23 11:01:08;;;;;;;21.67;3.95;;;15.50;99.90;;;;;;5100229;28;20433;-66
2023/05/23 11:03:44;;;;;;;21.75;3.60;;;15.60;99.90;;;;;;5098978;28;20058;-72
2023/05/23 11:06:40;;;;;;;15.18;3.33;;;15.40;99.90;;;;;;5089037;28;20482;-67
2023/05/23 11:09:13;;;;;;;21.52;3.53;;;15.20;99.90;;;;;;5082463;28;20059;-69
2023/05/23 11:11:53;;;;;;;22.98;3.30;;;15.10;99.90;;;;;;5098859;28;20039;-68
2023/05/23 11:14:45;;;;;;;17.80;3.55;;;15.20;99.90;;;;;;5083922;28;20496;-68
2023/05/23 11:17:28;;;;;;;20.42;3.17;;;15.10;99.90;;;;;;5077602;28;20562;-67
2023/05/23 11:20:11;;;;;;;23.23;4.22;;;15.40;99.90;;;;;;5081373;28;20101;-75
2023/05/23 11:22:38;;;;;;;16.88;3.22;;;15.40;99.90;;;;;;5081109;28;20144;-70
2023/05/23 11:25:09;;;;;;;18.10;2.90;;;15.60;99.90;;;;;;5098281;28;20131;-67
2023/05/23 11:27:40;;;;;;;17.75;3.35;;;15.50;99.90;;;;;;5099299;28;20048;-67
2023/05/23 11:30:12;;;;;;;14.75;3.03;;;15.90;99.90;;;;;;5100105;28;20498;-70
2023/05/23 11:32:38;;;;;;;14.90;3.45;;;15.90;99.90;;;;;;5102796;28;20036;-69
2023/05/23 11:35:10;;;;;;;18.40;3.28;;;15.90;99.90;;;;;;5097505;28;20456;-69
2023/05/23 11:37:40;;;;;;;18.45;2.97;;;16.10;99.90;;;;;;5077955;28;20582;-67
2023/05/23 11:40:27;;;;;;;16.45;3.00;;;16.10;99.90;;;;;;5098822;28;20047;-67
2023/05/23 11:42:53;;;;;;;12.13;2.28;;;16.30;99.90;;;;;;5089809;28;20040;-69
2023/05/23 11:45:20;;;;;;;19.85;3.97;;;16.30;99.90;;;;;;5101211;28;20042;-71
2023/05/23 11:47:45;;;;;;;14.73;3.97;;;16.40;99.90;;;;;;5094280;28;20051;-69
2023/05/23 11:50:11;;;;;;;15.93;3.70;;;16.30;99.90;;;;;;5095419;28;20047;-71
2023/05/23 11:52:37;;;;;;;16.23;3.00;;;16.10;99.90;;;;;;5100701;28;20121;-72
2023/05/23 11:55:02;;;;;;;14.98;3.10;;;16.00;99.90;;;;;;5102200;28;20132;-70
2023/05/23 11:57:29;;;;;;;19.48;3.40;;;16.00;99.90;;;;;;5101942;28;20051;-70
2023/05/23 11:59:55;;;;;;;18.17;3.00;;;16.30;99.90;;;;;;5095431;28;20070;-70
2023/05/23 12:02:23;;;;;;;15.68;3.38;;;16.70;99.90;;;;;;5094163;28;20036;-72
2023/05/23 12:04:49;;;;;;;14.38;3.20;;;17.00;99.90;;;;;;5091987;28;20085;-68
2023/05/23 12:07:19;;;;;;;13.30;2.65;;;17.00;99.90;;;;;;5096226;28;20043;-71
2023/05/23 12:09:45;;;;;;;12.20;2.42;;;16.90;99.90;;;;;;5076049;28;20051;-71
2023/05/23 12:12:11;;;;;;;12.68;2.72;;;17.00;99.90;;;;;;5101624;28;20044;-71
2023/05/23 12:14:43;;;;;;;22.58;3.88;;;16.80;99.90;;;;;;5101362;28;20036;-70
2023/05/23 12:17:11;;;;;;;22.13;3.38;;;16.70;99.90;;;;;;5098311;28;20040;-71
2023/05/23 12:19:37;;;;;;;14.90;3.85;;;16.50;99.90;;;;;;5098450;28;20039;-71
2023/05/23 12:22:07;;;;;;;18.02;3.00;;;16.50;99.90;;;;;;5100107;28;20457;-72
2023/05/23 12:24:32;;;;;;;13.32;2.95;;;17.00;99.90;;;;;;5101670;28;20039;-69
2023/05/23 12:27:00;;;;;;;17.90;2.67;;;16.90;99.90;;;;;;5101258;28;20041;-71
2023/05/23 12:29:31;;;;;;;20.80;2.70;;;16.70;99.90;;;;;;5097906;28;20042;-71
2023/05/23 12:32:01;;;;;;;11.15;2.83;;;16.70;99.90;;;;;;5098179;28;20087;-78
2023/05/23 12:34:27;;;;;;;16.95;2.45;;;17.00;99.90;;;;;;5084622;28;20332;-69
2023/05/23 12:36:58;;;;;;;18.23;2.75;;;17.30;99.90;;;;;;5079933;28;20047;-71
2023/05/23 12:39:28;;;;;;;14.02;2.20;;;17.20;99.90;;;;;;5100180;28;20044;-70